Time;durP1;ratioP1;P1;durP2;ratioP2;P2;SDS_P1;SDS_P2;PMS_P1;PMS_P2;Temp;Humidity;BMP_temperature;BMP_pressure;BME280_temperature;BME280_humidity;BME280_pressure;Samples;Min_cycle;Max_cycle;Signal;HPM_P1;HPM_P2
2021/01/18 00:00:47;;;;;;;21.23;7.20;;;5.20;94.20;;;;;;5135371;27;20506;-80
2021/01/18 00:03:13;;;;;;;35.22;10.35;;;5.20;94.20;;;;;;5102688;28;20104;-81
2021/01/18 00:05:38;;;;;;;32.78;8.23;;;5.20;94.10;;;;;;5115282;28;20157;-80
2021/01/18 00:08:04;;;;;;;36.47;9.95;;;5.20;94.10;;;;;;5097226;28;20035;-80
2021/01/18 00:10:30;;;;;;;30.40;9.32;;;5.20;94.10;;;;;;5097489;28;20043;-80
2021/01/18 00:12:56;;;;;;;26.23;9.45;;;5.20;94.10;;;;;;5115135;28;20111;-74
2021/01/18 00:15:25;;;;;;;28.60;8.55;;;5.20;94.10;;;;;;5102654;28;20031;-74
2021/01/18 00:17:52;;;;;;;23.92;6.95;;;5.20;94.10;;;;;;5114007;28;20102;-74
2021/01/18 00:20:19;;;;;;;35.40;7.85;;;5.20;94.30;;;;;;5091639;28;20387;-74
2021/01/18 00:22:46;;;;;;;27.83;6.40;;;5.20;94.10;;;;;;5113625;28;20080;-74
2021/01/18 00:25:18;;;;;;;31.02;7.18;;;5.20;94.10;;;;;;5090991;28;20032;-74
2021/01/18 00:27:44;;;;;;;28.75;7.22;;;5.20;94.00;;;;;;5096070;28;20030;-73
2021/01/18 00:30:19;;;;;;;24.30;7.60;;;5.20;94.00;;;;;;5096961;28;20110;-74
2021/01/18 00:32:45;;;;;;;28.08;7.35;;;5.20;94.00;;;;;;5096867;27;20127;-74
2021/01/18 00:35:12;;;;;;;33.00;8.43;;;5.20;94.00;;;;;;5100457;28;20106;-74
2021/01/18 00:37:45;;;;;;;29.92;8.75;;;5.20;94.00;;;;;;5114252;27;20028;-73
2021/01/18 00:40:12;;;;;;;28.10;8.15;;;5.20;94.00;;;;;;5100830;28;20098;-74
2021/01/18 00:42:39;;;;;;;24.98;7.82;;;5.20;94.00;;;;;;5096371;28;20047;-74
2021/01/18 00:45:06;;;;;;;33.58;9.05;;;5.20;94.00;;;;;;5100043;27;20817;-74
2021/01/18 00:47:32;;;;;;;22.58;8.38;;;5.20;94.00;;;;;;5074041;28;20080;-74
2021/01/18 00:49:58;;;;;;;25.80;9.65;;;5.20;94.00;;;;;;5086111;28;20028;-74
2021/01/18 00:52:23;;;;;;;24.73;9.13;;;5.20;93.90;;;;;;5113821;28;20044;-73
2021/01/18 00:54:49;;;;;;;24.10;9.98;;;5.30;94.00;;;;;;5084816;28;20038;-74
2021/01/18 00:57:14;;;;;;;39.83;11.95;;;5.20;93.90;;;;;;5076656;28;20036;-74
2021/01/18 00:59:40;;;;;;;28.13;12.00;;;5.20;93.90;;;;;;5085662;28;20433;-74
2021/01/18 01:02:05;;;;;;;29.52;12.52;;;5.20;93.90;;;;;;5122125;27;20032;-74
2021/01/18 01:04:31;;;;;;;35.92;14.75;;;5.20;93.90;;;;;;5128319;27;20511;-74
2021/01/18 01:06:57;;;;;;;39.78;13.77;;;5.20;93.90;;;;;;5121947;27;20059;-74
2021/01/18 01:09:22;;;;;;;35.53;15.07;;;5.20;93.90;;;;;;5114202;28;20040;-74
2021/01/18 01:11:48;;;;;;;31.75;13.60;;;5.20;93.90;;;;;;5099158;27;20020;-74
2021/01/18 01:14:13;;;;;;;38.95;17.13;;;5.20;93.90;;;;;;5096593;27;20028;-74
2021/01/18 01:16:42;;;;;;;38.08;16.13;;;5.20;93.90;;;;;;5129269;27;20145;-74
2021/01/18 01:19:09;;;;;;;29.02;14.50;;;5.20;93.90;;;;;;5121201;27;20479;-74
2021/01/18 01:21:35;;;;;;;32.78;14.75;;;5.20;93.80;;;;;;5096589;28;20055;-74
2021/01/18 01:24:00;;;;;;;33.00;14.80;;;5.20;93.80;;;;;;5113219;28;20482;-74
2021/01/18 01:26:26;;;;;;;30.52;14.75;;;5.20;93.80;;;;;;5102750;28;20031;-74
2021/01/18 01:28:51;;;;;;;27.63;13.85;;;5.20;93.80;;;;;;5071285;28;20507;-74
2021/01/18 01:31:18;;;;;;;34.53;16.17;;;5.20;93.80;;;;;;5087423;28;20030;-74
2021/01/18 01:33:44;;;;;;;47.13;18.73;;;5.20;93.80;;;;;;5078510;28;20092;-74
2021/01/18 01:36:10;;;;;;;41.53;17.63;;;5.20;93.80;;;;;;5095029;28;20464;-74
2021/01/18 01:38:36;;;;;;;35.45;16.05;;;5.20;93.80;;;;;;5078597;28;20077;-73
2021/01/18 01:41:02;;;;;;;31.65;15.65;;;5.20;93.80;;;;;;5113333;28;20040;-74
2021/01/18 01:43:28;;;;;;;26.92;15.07;;;5.10;93.80;;;;;;5094918;28;20111;-74
2021/01/18 01:45:53;;;;;;;29.13;14.82;;;5.10;93.70;;;;;;5113033;28;20098;-74
2021/01/18 01:48:19;;;;;;;31.92;14.65;;;5.20;93.70;;;;;;5113572;28;20038;-74
2021/01/18 01:50:47;;;;;;;36.17;16.70;;;5.20;93.70;;;;;;5097613;28;20023;-74
2021/01/18 01:53:21;;;;;;;33.85;14.98;;;5.10;93.70;;;;;;5096211;28;20102;-74
2021/01/18 01:55:47;;;;;;;29.80;14.57;;;5.10;93.70;;;;;;5095261;28;20034;-74
2021/01/18 01:58:15;;;;;;;28.05;15.40;;;5.10;93.80;;;;;;5095332;28;20106;-74
2021/01/18 02:00:42;;;;;;;33.00;14.85;;;5.10;93.70;;;;;;5098536;28;20441;-74
2021/01/18 02:03:09;;;;;;;32.40;15.30;;;5.10;93.70;;;;;;5095372;28;20059;-74
2021/01/18 02:05:35;;;;;;;25.80;14.65;;;5.00;93.70;;;;;;5095270;28;20418;-74
2021/01/18 02:08:03;;;;;;;34.50;15.10;;;5.00;93.60;;;;;;5112501;28;20073;-74
2021/01/18 02:10:30;;;;;;;30.20;14.02;;;5.00;93.60;;;;;;5097819;28;20176;-74
2021/01/18 02:13:20;;;;;;;35.67;13.55;;;5.00;93.60;;;;;;5095226;28;20028;-74
2021/01/18 02:15:54;;;;;;;30.85;14.45;;;4.90;93.60;;;;;;5104164;28;20039;-74
2021/01/18 02:18:42;;;;;;;30.80;12.93;;;4.90;93.60;;;;;;5112313;28;20020;-74
2021/01/18 02:21:45;;;;;;;27.20;13.80;;;4.80;93.60;;;;;;5095980;28;20046;-74
2021/01/18 02:24:34;;;;;;;33.95;14.23;;;4.80;93.70;;;;;;5113193;28;20027;-74
2021/01/18 02:27:14;;;;;;;26.50;13.77;;;4.70;93.70;;;;;;5055540;28;20089;-74
2021/01/18 02:30:04;;;;;;;31.92;14.88;;;4.70;93.70;;;;;;5103703;28;20024;-73
2021/01/18 02:32:54;;;;;;;37.72;15.00;;;4.70;93.70;;;;;;5105772;28;20411;-74
2021/01/18 02:35:57;;;;;;;33.65;14.55;;;4.70;93.70;;;;;;5109462;28;20024;-73
2021/01/18 02:38:42;;;;;;;29.50;13.50;;;4.80;93.80;;;;;;5098780;28;20119;-74
2021/01/18 02:41:23;;;;;;;30.40;13.70;;;4.80;93.70;;;;;;5110130;28;20024;-74
2021/01/18 02:43:55;;;;;;;33.08;14.43;;;4.80;93.90;;;;;;5080060;28;20024;-74
2021/01/18 02:46:23;;;;;;;31.80;13.80;;;4.80;93.70;;;;;;5116603;27;20035;-74
2021/01/18 02:48:49;;;;;;;26.80;13.52;;;4.80;93.70;;;;;;5117019;27;20118;-74
2021/01/18 02:51:18;;;;;;;31.90;15.05;;;4.80;93.70;;;;;;5131426;27;20106;-74
2021/01/18 02:54:00;;;;;;;28.20;14.63;;;4.80;93.60;;;;;;5114042;27;20016;-74
2021/01/18 02:56:33;;;;;;;28.40;13.60;;;4.80;93.70;;;;;;5116017;27;20044;-74
2021/01/18 02:59:01;;;;;;;32.90;13.75;;;4.80;93.60;;;;;;5126278;27;20015;-74
2021/01/18 03:01:56;;;;;;;27.33;13.07;;;4.80;93.60;;;;;;5137252;27;20058;-74
2021/01/18 03:04:52;;;;;;;31.02;13.70;;;4.80;93.60;;;;;;5066501;27;20045;-74
2021/01/18 03:07:30;;;;;;;34.90;13.35;;;4.80;93.60;;;;;;5118197;27;20027;-74
2021/01/18 03:10:05;;;;;;;28.90;13.40;;;4.80;93.60;;;;;;5117844;27;20027;-73
2021/01/18 03:12:40;;;;;;;31.42;13.10;;;4.80;93.50;;;;;;5130352;27;20023;-74
2021/01/18 03:15:10;;;;;;;22.95;13.23;;;4.90;93.50;;;;;;5120066;27;20073;-74
2021/01/18 03:17:37;;;;;;;31.33;14.20;;;4.80;93.50;;;;;;5116994;27;20035;-73
2021/01/18 03:20:03;;;;;;;26.73;13.50;;;4.80;93.50;;;;;;5098017;28;20024;-74
2021/01/18 03:22:29;;;;;;;32.38;12.57;;;4.80;93.40;;;;;;5114317;27;20500;-74
2021/01/18 03:25:06;;;;;;;25.83;13.10;;;4.80;93.50;;;;;;5081137;28;20038;-74
2021/01/18 03:28:04;;;;;;;27.90;12.73;;;4.80;93.50;;;;;;5078069;28;20044;-74
2021/01/18 03:30:30;;;;;;;28.30;12.27;;;4.80;93.50;;;;;;5044626;27;20059;-74
2021/01/18 03:32:56;;;;;;;32.83;12.68;;;4.80;93.40;;;;;;5108236;28;20507;-74
2021/01/18 03:35:23;;;;;;;30.80;12.90;;;4.80;93.40;;;;;;5087082;28;20051;-74
2021/01/18 03:37:56;;;;;;;30.83;12.95;;;4.70;93.40;;;;;;5113310;27;20471;-74
2021/01/18 03:40:23;;;;;;;39.92;13.50;;;4.80;93.40;;;;;;5113914;27;20039;-74
2021/01/18 03:42:57;;;;;;;34.90;12.95;;;4.70;93.40;;;;;;5112052;27;20023;-74
2021/01/18 03:45:28;;;;;;;35.67;12.85;;;4.70;93.40;;;;;;5109256;27;20533;-74
2021/01/18 03:47:54;;;;;;;27.95;12.25;;;4.70;93.30;;;;;;5107672;27;20035;-74
2021/01/18 03:50:20;;;;;;;26.02;11.00;;;4.70;93.30;;;;;;5097428;28;20050;-74
2021/01/18 03:52:47;;;;;;;39.05;12.48;;;4.70;93.40;;;;;;5121124;27;20102;-73
2021/01/18 03:55:13;;;;;;;31.67;13.23;;;4.70;93.70;;;;;;5117857;27;20024;-74
2021/01/18 03:57:39;;;;;;;25.45;11.57;;;4.70;93.40;;;;;;5116031;27;20030;-74
2021/01/18 04:00:06;;;;;;;30.48;11.00;;;4.70;93.40;;;;;;5107944;28;20051;-74
2021/01/18 04:02:31;;;;;;;30.98;13.07;;;4.70;93.40;;;;;;5115086;28;20023;-73
2021/01/18 04:04:57;;;;;;;27.42;11.60;;;4.70;93.40;;;;;;5118653;27;20054;-73
2021/01/18 04:07:23;;;;;;;30.17;12.60;;;4.70;93.40;;;;;;5098186;28;20038;-74
2021/01/18 04:09:48;;;;;;;27.40;12.38;;;4.70;93.40;;;;;;5127310;27;20030;-73
2021/01/18 04:12:14;;;;;;;32.75;12.80;;;4.70;93.40;;;;;;5097083;28;20471;-74
2021/01/18 04:14:40;;;;;;;32.08;13.38;;;4.70;93.40;;;;;;5082877;28;20149;-74
2021/01/18 04:17:05;;;;;;;33.28;13.73;;;4.70;93.40;;;;;;5114833;28;20088;-74
2021/01/18 04:19:31;;;;;;;26.38;12.40;;;4.70;93.40;;;;;;5116441;27;20107;-74
2021/01/18 04:21:57;;;;;;;29.27;12.73;;;4.70;93.40;;;;;;5102360;27;20118;-74
2021/01/18 04:24:23;;;;;;;27.33;12.43;;;4.70;93.40;;;;;;5124197;27;20024;-74
2021/01/18 04:26:48;;;;;;;35.25;13.23;;;4.70;93.40;;;;;;5095424;28;20028;-74
2021/01/18 04:29:14;;;;;;;28.65;12.07;;;4.70;93.40;;;;;;5111089;28;20028;-73
2021/01/18 04:31:41;;;;;;;31.63;12.57;;;4.70;93.40;;;;;;5079571;28;20503;-74
2021/01/18 04:34:07;;;;;;;31.27;12.18;;;4.70;93.40;;;;;;5100957;28;20036;-74
2021/01/18 04:36:37;;;;;;;40.33;14.07;;;4.70;93.40;;;;;;5096646;27;20031;-74
2021/01/18 04:39:05;;;;;;;31.05;12.40;;;4.60;93.40;;;;;;5114901;28;20041;-74
2021/01/18 04:41:31;;;;;;;40.35;13.80;;;4.60;93.50;;;;;;5095750;28;20023;-74
2021/01/18 04:43:58;;;;;;;45.28;14.35;;;4.60;93.50;;;;;;5113683;28;20031;-74
2021/01/18 04:46:28;;;;;;;26.40;11.90;;;4.60;93.50;;;;;;5078270;28;20035;-73
2021/01/18 04:48:57;;;;;;;34.67;13.60;;;4.60;93.50;;;;;;5113404;28;20092;-74
2021/01/18 04:51:24;;;;;;;25.88;11.65;;;4.50;93.50;;;;;;5096158;28;20019;-74
2021/01/18 04:53:52;;;;;;;29.10;11.98;;;4.50;93.50;;;;;;5097159;28;20023;-73
2021/01/18 04:56:36;;;;;;;31.58;12.20;;;4.50;93.50;;;;;;5105759;28;20027;-74
2021/01/18 04:59:03;;;;;;;31.38;11.90;;;4.50;93.50;;;;;;5123298;27;20067;-74
2021/01/18 05:01:30;;;;;;;30.30;12.68;;;4.50;93.50;;;;;;5111860;28;20028;-73
2021/01/18 05:04:04;;;;;;;32.15;12.30;;;4.50;93.60;;;;;;5110019;27;20126;-74
2021/01/18 05:06:44;;;;;;;35.92;13.25;;;4.40;93.60;;;;;;5097555;28;20028;-73
2021/01/18 05:09:29;;;;;;;27.70;12.23;;;4.40;93.60;;;;;;5098702;28;20024;-74
2021/01/18 05:11:56;;;;;;;36.15;14.13;;;4.30;93.60;;;;;;5113526;27;20020;-73
2021/01/18 05:14:22;;;;;;;31.85;13.40;;;4.30;93.60;;;;;;5101598;28;20027;-74
2021/01/18 05:16:55;;;;;;;29.75;12.10;;;4.30;93.60;;;;;;5126214;27;20075;-73
2021/01/18 05:19:24;;;;;;;30.65;13.52;;;4.30;93.70;;;;;;5113910;28;20118;-74
2021/01/18 05:21:50;;;;;;;28.95;13.20;;;4.20;93.70;;;;;;5116963;27;20019;-73
2021/01/18 05:24:17;;;;;;;31.33;12.90;;;4.20;93.70;;;;;;5128647;27;20384;-74
2021/01/18 05:26:43;;;;;;;32.67;12.23;;;4.20;93.70;;;;;;5117000;27;20139;-74
2021/01/18 05:29:09;;;;;;;38.55;15.07;;;4.20;93.70;;;;;;5114022;27;20051;-74
2021/01/18 05:31:39;;;;;;;31.92;13.80;;;4.20;93.70;;;;;;5118413;27;20062;-74
2021/01/18 05:34:13;;;;;;;51.92;15.27;;;4.30;93.70;;;;;;5099278;28;20127;-73
2021/01/18 05:36:45;;;;;;;33.10;13.73;;;4.30;94.00;;;;;;5113637;28;20035;-73
2021/01/18 05:39:19;;;;;;;37.17;15.90;;;4.20;93.70;;;;;;5113246;28;20028;-73
2021/01/18 05:41:55;;;;;;;32.65;14.15;;;4.20;93.80;;;;;;5096502;28;20434;-74
2021/01/18 05:44:31;;;;;;;53.15;17.85;;;4.20;93.80;;;;;;5114345;27;20087;-74
2021/01/18 05:47:05;;;;;;;24.50;12.55;;;4.20;93.80;;;;;;5095006;28;20027;-73
2021/01/18 05:49:48;;;;;;;33.00;14.55;;;4.20;93.80;;;;;;5118872;27;20020;-73
2021/01/18 05:52:30;;;;;;;45.45;16.27;;;4.20;93.80;;;;;;5096978;28;20042;-73
2021/01/18 05:55:16;;;;;;;36.47;14.45;;;4.20;93.90;;;;;;5074980;28;20036;-73
2021/01/18 05:57:55;;;;;;;41.72;17.42;;;4.20;93.90;;;;;;5122478;27;20023;-73
2021/01/18 06:00:32;;;;;;;46.78;16.77;;;4.20;93.90;;;;;;5105940;27;20027;-73
2021/01/18 06:03:00;;;;;;;35.65;15.25;;;4.20;93.90;;;;;;5093787;28;20093;-73
2021/01/18 06:05:30;;;;;;;33.60;16.42;;;4.20;93.90;;;;;;5133908;27;20413;-73
2021/01/18 06:08:13;;;;;;;36.08;15.45;;;4.20;94.00;;;;;;5108028;28;20019;-73
2021/01/18 06:10:39;;;;;;;36.67;15.43;;;4.20;93.90;;;;;;5116802;27;20546;-73
2021/01/18 06:13:26;;;;;;;43.00;16.40;;;4.20;93.90;;;;;;5132957;27;20033;-73
2021/01/18 06:16:12;;;;;;;39.88;15.65;;;4.10;93.90;;;;;;5119004;28;20024;-74
2021/01/18 06:18:40;;;;;;;35.17;15.43;;;4.10;93.90;;;;;;5112283;28;20031;-73
2021/01/18 06:21:08;;;;;;;46.20;17.35;;;4.20;93.90;;;;;;5110643;28;20123;-73
2021/01/18 06:23:34;;;;;;;44.33;16.52;;;4.20;93.90;;;;;;5104855;28;20031;-73
2021/01/18 06:26:00;;;;;;;38.30;15.45;;;4.20;93.90;;;;;;5094781;28;20023;-73
2021/01/18 06:28:37;;;;;;;37.22;15.80;;;4.20;93.90;;;;;;5097860;28;20437;-74
2021/01/18 06:31:07;;;;;;;33.22;15.15;;;4.20;94.20;;;;;;5123221;27;20089;-74
2021/01/18 06:33:48;;;;;;;34.47;14.45;;;4.20;93.90;;;;;;5105593;28;20126;-74
2021/01/18 06:36:24;;;;;;;31.02;13.50;;;4.20;93.90;;;;;;5111630;28;20034;-73
2021/01/18 06:39:01;;;;;;;37.55;15.00;;;4.20;93.80;;;;;;5092622;28;20052;-74
2021/01/18 06:41:29;;;;;;;36.90;14.20;;;4.10;93.80;;;;;;5108418;28;20031;-74
2021/01/18 06:43:55;;;;;;;33.47;14.20;;;4.10;93.80;;;;;;5095282;28;20484;-73
2021/01/18 06:46:28;;;;;;;38.90;15.13;;;4.10;93.80;;;;;;5111925;28;20107;-73
2021/01/18 06:48:53;;;;;;;36.20;15.55;;;4.10;93.80;;;;;;5128729;28;20092;-73
2021/01/18 06:51:24;;;;;;;44.63;16.10;;;4.20;93.90;;;;;;5124504;27;20023;-73
2021/01/18 06:53:52;;;;;;;42.97;18.77;;;4.20;93.90;;;;;;5121045;27;20476;-73
2021/01/18 06:56:25;;;;;;;41.17;17.27;;;4.20;93.80;;;;;;5094467;28;20365;-73
2021/01/18 06:58:59;;;;;;;39.33;14.80;;;4.20;93.90;;;;;;5120026;28;20026;-74
2021/01/18 07:01:30;;;;;;;38.38;16.40;;;4.20;93.90;;;;;;5100270;28;20066;-74
2021/01/18 07:04:17;;;;;;;48.38;15.65;;;4.20;93.90;;;;;;5075148;28;20079;-74
2021/01/18 07:06:43;;;;;;;37.42;15.90;;;4.20;94.20;;;;;;5119461;28;20020;-73
2021/01/18 07:09:19;;;;;;;46.80;17.20;;;4.20;93.90;;;;;;5133121;27;20047;-73
2021/01/18 07:11:45;;;;;;;37.70;15.55;;;4.20;94.20;;;;;;5100777;28;20019;-73
2021/01/18 07:14:12;;;;;;;36.80;15.10;;;4.20;93.90;;;;;;5116346;28;20019;-74
2021/01/18 07:16:42;;;;;;;47.42;17.88;;;4.20;93.80;;;;;;5116098;28;20031;-74
2021/01/18 07:19:08;;;;;;;36.13;15.60;;;4.20;93.80;;;;;;5116025;28;20044;-73
2021/01/18 07:22:06;;;;;;;34.28;15.90;;;4.10;94.00;;;;;;5115770;28;20029;-74
2021/01/18 07:24:37;;;;;;;45.10;15.52;;;4.10;93.90;;;;;;5106906;28;20039;-73
2021/01/18 07:27:06;;;;;;;32.40;15.43;;;4.10;93.80;;;;;;5109584;28;20031;-73
2021/01/18 07:29:32;;;;;;;51.30;17.98;;;4.10;93.70;;;;;;5108266;27;20110;-73
2021/01/18 07:31:59;;;;;;;33.50;16.17;;;4.10;93.70;;;;;;5110690;27;20043;-74
2021/01/18 07:34:27;;;;;;;39.90;17.25;;;4.10;93.70;;;;;;5121218;27;20420;-73
2021/01/18 07:37:04;;;;;;;40.33;14.77;;;4.10;93.70;;;;;;5105950;28;20023;-74
2021/01/18 07:39:32;;;;;;;36.67;14.65;;;4.10;93.70;;;;;;5117708;27;20023;-73
2021/01/18 07:41:59;;;;;;;41.63;17.80;;;4.00;93.70;;;;;;5123608;27;20031;-73
2021/01/18 07:44:46;;;;;;;39.08;15.85;;;4.00;93.70;;;;;;5125167;27;20330;-73
2021/01/18 07:47:14;;;;;;;32.42;14.80;;;3.90;93.70;;;;;;5117038;27;20031;-73
2021/01/18 07:49:41;;;;;;;40.00;15.25;;;3.90;93.70;;;;;;5120252;27;20028;-73
2021/01/18 07:52:18;;;;;;;43.75;16.83;;;3.90;93.70;;;;;;5105485;27;20015;-73
2021/01/18 07:54:45;;;;;;;39.03;15.65;;;3.90;93.80;;;;;;5118685;27;20020;-73
2021/01/18 07:57:25;;;;;;;44.25;17.08;;;3.90;93.80;;;;;;5115455;28;20024;-73
2021/01/18 08:00:17;;;;;;;46.58;15.65;;;3.90;93.80;;;;;;5098157;28;20020;-74
2021/01/18 08:02:50;;;;;;;45.03;16.70;;;3.90;93.70;;;;;;5112743;28;20454;-73
2021/01/18 08:05:29;;;;;;;35.55;15.52;;;3.90;93.70;;;;;;5103294;27;20034;-73
2021/01/18 08:08:07;;;;;;;53.55;18.63;;;3.90;93.70;;;;;;5115261;28;20048;-73
2021/01/18 08:10:54;;;;;;;41.47;15.95;;;3.90;93.70;;;;;;5115167;28;20020;-73
2021/01/18 08:13:55;;;;;;;37.85;15.52;;;3.90;93.70;;;;;;5124984;27;20028;-73
2021/01/18 08:16:27;;;;;;;38.92;15.38;;;3.90;93.60;;;;;;5115927;27;20026;-73
2021/01/18 08:18:58;;;;;;;34.97;15.43;;;3.90;93.60;;;;;;5115316;28;20020;-73
2021/01/18 08:21:35;;;;;;;38.80;15.77;;;4.00;93.60;;;;;;5100473;28;20027;-73
2021/01/18 08:24:06;;;;;;;41.42;16.13;;;4.00;93.60;;;;;;5114573;28;20027;-73
2021/01/18 08:26:52;;;;;;;47.50;15.13;;;4.00;93.60;;;;;;5095978;27;20031;-73
2021/01/18 08:29:48;;;;;;;49.50;16.75;;;4.10;93.60;;;;;;5125300;27;20023;-73
2021/01/18 08:32:23;;;;;;;37.75;14.90;;;4.10;93.50;;;;;;5108567;28;20412;-74
2021/01/18 08:34:49;;;;;;;41.80;16.27;;;4.10;93.50;;;;;;5116275;27;20015;-74
2021/01/18 08:37:15;;;;;;;41.35;16.10;;;4.20;93.50;;;;;;5114981;28;20038;-74
2021/01/18 08:39:58;;;;;;;44.80;16.17;;;4.20;93.50;;;;;;5115711;27;20076;-74
2021/01/18 08:42:36;;;;;;;45.72;15.27;;;4.30;93.40;;;;;;5114507;28;20027;-74
2021/01/18 08:45:19;;;;;;;43.47;15.23;;;4.30;93.40;;;;;;5094079;28;20039;-74
2021/01/18 08:48:05;;;;;;;42.40;14.63;;;4.40;93.40;;;;;;5100570;28;20052;-74
2021/01/18 08:50:37;;;;;;;40.55;15.00;;;4.40;93.30;;;;;;5111287;28;20040;-74
2021/01/18 08:53:22;;;;;;;52.63;17.00;;;4.40;93.30;;;;;;5095632;28;20024;-74
2021/01/18 08:55:49;;;;;;;37.67;14.00;;;4.40;93.20;;;;;;5097095;27;20019;-74
2021/01/18 08:58:36;;;;;;;35.22;13.65;;;4.50;93.20;;;;;;5115960;27;20035;-74
2021/01/18 09:01:14;;;;;;;41.08;14.90;;;4.50;93.30;;;;;;5104803;27;20027;-74
2021/01/18 09:03:40;;;;;;;41.42;15.38;;;4.50;93.20;;;;;;5130692;27;20027;-74
2021/01/18 09:06:06;;;;;;;43.45;15.48;;;4.50;93.10;;;;;;5104598;27;20058;-74
2021/01/18 09:08:32;;;;;;;40.45;14.07;;;4.50;93.10;;;;;;5098989;27;20043;-74
2021/01/18 09:11:06;;;;;;;35.60;13.73;;;4.60;93.10;;;;;;5096323;28;20108;-74
2021/01/18 09:13:33;;;;;;;34.95;13.70;;;4.60;93.10;;;;;;5095761;27;20053;-74
2021/01/18 09:16:03;;;;;;;36.35;13.93;;;4.60;93.10;;;;;;5099551;27;20024;-74
2021/01/18 09:18:29;;;;;;;34.22;13.13;;;4.70;93.10;;;;;;5108412;28;20023;-74
2021/01/18 09:20:56;;;;;;;34.90;12.10;;;4.70;93.00;;;;;;5114014;28;20503;-74
2021/01/18 09:23:25;;;;;;;42.38;13.45;;;4.80;93.00;;;;;;5113173;27;20499;-74
2021/01/18 09:26:12;;;;;;;39.95;13.40;;;4.80;93.10;;;;;;5111526;28;20038;-74
2021/01/18 09:28:49;;;;;;;37.55;12.70;;;4.90;92.80;;;;;;5093479;28;20035;-74
2021/01/18 09:31:15;;;;;;;41.40;12.80;;;4.90;92.70;;;;;;5115349;27;20027;-74
2021/01/18 09:33:42;;;;;;;39.03;12.77;;;5.00;92.70;;;;;;5081607;28;20092;-74
2021/01/18 09:36:12;;;;;;;34.63;11.77;;;5.00;92.60;;;;;;5113807;28;20024;-74
2021/01/18 09:38:38;;;;;;;34.17;12.73;;;5.00;92.50;;;;;;5124857;27;20046;-74
2021/01/18 09:41:04;;;;;;;28.80;11.60;;;5.00;92.40;;;;;;5115873;27;20019;-75
2021/01/18 09:43:32;;;;;;;40.58;12.85;;;5.10;92.50;;;;;;5061068;27;20400;-73
2021/01/18 09:45:58;;;;;;;35.00;11.95;;;5.10;92.40;;;;;;5114960;27;20015;-76
2021/01/18 09:48:25;;;;;;;34.90;11.35;;;5.10;92.40;;;;;;5095441;28;20110;-75
2021/01/18 09:51:01;;;;;;;42.85;13.25;;;5.10;92.40;;;;;;5093347;28;20016;-76
2021/01/18 09:53:27;;;;;;;29.77;10.13;;;5.10;92.40;;;;;;5104173;28;20102;-76
2021/01/18 09:56:04;;;;;;;38.55;11.05;;;5.10;92.40;;;;;;5095525;28;20539;-76
2021/01/18 09:58:44;;;;;;;35.53;11.60;;;5.20;92.40;;;;;;5104719;27;20064;-76
2021/01/18 10:01:15;;;;;;;27.58;10.45;;;5.20;92.40;;;;;;5099931;28;20383;-75
2021/01/18 10:03:42;;;;;;;33.95;10.80;;;5.20;92.30;;;;;;5078202;28;20017;-76
2021/01/18 10:06:20;;;;;;;31.17;10.63;;;5.30;92.30;;;;;;5085932;28;20023;-75
2021/01/18 10:08:47;;;;;;;31.95;9.82;;;5.40;92.30;;;;;;5113524;28;20024;-75
2021/01/18 10:11:26;;;;;;;35.35;10.15;;;5.40;92.10;;;;;;5095369;28;20480;-75
2021/01/18 10:14:02;;;;;;;31.17;10.00;;;5.50;92.10;;;;;;5097592;28;20028;-75
2021/01/18 10:16:28;;;;;;;28.27;9.43;;;5.50;92.00;;;;;;5095389;28;20440;-76
2021/01/18 10:18:53;;;;;;;29.30;9.90;;;5.60;92.00;;;;;;5094419;28;20019;-76
2021/01/18 10:21:32;;;;;;;24.25;9.00;;;5.70;92.00;;;;;;5080537;28;20023;-76
2021/01/18 10:23:58;;;;;;;28.10;8.98;;;5.70;91.90;;;;;;5112687;28;20076;-76
2021/01/18 10:26:28;;;;;;;26.05;9.00;;;5.80;91.90;;;;;;5093019;28;20119;-75
2021/01/18 10:29:02;;;;;;;23.13;9.15;;;5.80;91.70;;;;;;5093298;28;20024;-75
2021/01/18 10:31:31;;;;;;;24.75;8.25;;;5.80;91.60;;;;;;5101979;28;20493;-75
2021/01/18 10:34:22;;;;;;;33.10;8.95;;;5.80;91.60;;;;;;5094770;28;20048;-75
2021/01/18 10:36:55;;;;;;;22.45;7.82;;;5.80;91.60;;;;;;5112121;28;20020;-75
2021/01/18 10:39:37;;;;;;;25.67;8.13;;;5.80;91.50;;;;;;5113810;28;20020;-75
2021/01/18 10:42:10;;;;;;;27.52;8.30;;;5.70;91.50;;;;;;5112972;28;20020;-75
2021/01/18 10:44:37;;;;;;;26.00;8.18;;;5.70;91.50;;;;;;5100890;28;20434;-75
2021/01/18 10:47:03;;;;;;;22.38;8.23;;;5.70;91.60;;;;;;5099216;28;20032;-75
2021/01/18 10:49:34;;;;;;;26.42;7.70;;;5.70;91.50;;;;;;5117111;28;20020;-75
2021/01/18 10:52:08;;;;;;;24.75;7.60;;;5.70;91.60;;;;;;5117119;28;20027;-76
2021/01/18 10:54:35;;;;;;;31.50;8.13;;;5.80;91.50;;;;;;5079855;28;20020;-76
2021/01/18 10:57:01;;;;;;;27.63;7.60;;;5.80;91.40;;;;;;5083035;27;20067;-75
2021/01/18 10:59:28;;;;;;;26.05;8.20;;;5.80;91.40;;;;;;5117154;28;20019;-75
2021/01/18 11:02:06;;;;;;;21.80;7.65;;;5.80;91.40;;;;;;5081972;28;20024;-75
2021/01/18 11:04:34;;;;;;;20.92;7.25;;;5.90;91.40;;;;;;5097801;28;20157;-75
2021/01/18 11:07:01;;;;;;;22.75;6.88;;;5.90;91.20;;;;;;5079445;28;20047;-75
2021/01/18 11:09:36;;;;;;;25.27;7.75;;;6.00;91.20;;;;;;5081829;28;20430;-75
2021/01/18 11:12:03;;;;;;;31.83;8.05;;;6.00;91.10;;;;;;5116296;28;20027;-75
2021/01/18 11:14:30;;;;;;;31.52;7.82;;;6.10;90.90;;;;;;5115816;28;20027;-75
2021/01/18 11:16:59;;;;;;;27.20;7.65;;;6.20;90.80;;;;;;5114416;28;20036;-75
2021/01/18 11:19:25;;;;;;;;;;;6.20;90.80;;;;;;5116331;27;20059;-74
2021/01/18 11:21:51;;;;;;;24.02;6.97;;;6.30;90.80;;;;;;5098525;28;19911;-74
2021/01/18 11:24:17;;;;;;;22.38;7.47;;;6.30;90.80;;;;;;5127099;27;20031;-74
2021/01/18 11:26:43;;;;;;;32.03;6.78;;;6.40;90.70;;;;;;5116667;27;20179;-74
2021/01/18 11:29:08;;;;;;;25.90;7.65;;;6.40;90.50;;;;;;5116240;27;20032;-74
2021/01/18 11:31:34;;;;;;;25.48;7.50;;;6.50;90.40;;;;;;5116285;27;20041;-75
2021/01/18 11:33:59;;;;;;;28.70;8.13;;;6.50;90.30;;;;;;5112343;28;20466;-74
2021/01/18 11:36:25;;;;;;;21.73;8.15;;;6.60;90.20;;;;;;5114290;28;20054;-74
2021/01/18 11:38:52;;;;;;;28.58;7.15;;;6.70;90.00;;;;;;5115959;27;20434;-75
2021/01/18 11:41:18;;;;;;;24.65;6.97;;;6.70;90.00;;;;;;5097658;28;20553;-75
2021/01/18 11:43:43;;;;;;;24.48;7.13;;;6.70;88.80;;;;;;5102216;28;20023;-75
2021/01/18 11:46:16;;;;;;;29.20;7.03;;;6.70;89.50;;;;;;5086307;28;20031;-74
2021/01/18 11:48:41;;;;;;;19.65;7.05;;;6.70;89.30;;;;;;5120743;27;20011;-75
2021/01/18 11:51:07;;;;;;;18.73;6.30;;;6.70;89.50;;;;;;5117474;27;20495;-75
2021/01/18 11:53:33;;;;;;;27.02;6.90;;;6.80;89.70;;;;;;5097837;28;20388;-75
2021/01/18 11:55:58;;;;;;;18.13;5.88;;;6.80;89.50;;;;;;5125911;27;20084;-75
2021/01/18 11:58:24;;;;;;;22.40;7.60;;;6.80;88.90;;;;;;5135794;27;20034;-75
2021/01/18 12:00:49;;;;;;;23.35;6.40;;;6.90;89.20;;;;;;5136107;27;20035;-75
2021/01/18 12:03:15;;;;;;;22.73;5.95;;;7.00;88.70;;;;;;5117023;27;20042;-75
2021/01/18 12:05:41;;;;;;;20.60;6.75;;;7.30;87.60;;;;;;5112487;28;20388;-75
2021/01/18 12:08:06;;;;;;;24.17;5.75;;;7.30;86.60;;;;;;5115533;28;20031;-75
2021/01/18 12:10:34;;;;;;;20.92;5.82;;;7.30;86.90;;;;;;5119712;27;20115;-75
2021/01/18 12:13:02;;;;;;;17.97;5.30;;;7.30;87.10;;;;;;5109375;28;20039;-75
2021/01/18 12:15:27;;;;;;;18.90;5.78;;;7.30;86.70;;;;;;5083020;27;20110;-75
2021/01/18 12:17:53;;;;;;;19.65;5.32;;;7.30;87.30;;;;;;5131829;27;20148;-75
2021/01/18 12:20:20;;;;;;;23.70;6.20;;;7.30;87.60;;;;;;5115351;27;20027;-75
2021/01/18 12:22:46;;;;;;;21.25;5.50;;;7.30;86.90;;;;;;5080449;28;20448;-75
2021/01/18 12:25:13;;;;;;;19.83;5.20;;;7.30;87.20;;;;;;5108067;28;20116;-75
2021/01/18 12:27:39;;;;;;;22.90;5.15;;;7.30;86.90;;;;;;5115316;27;20029;-75
2021/01/18 12:30:06;;;;;;;29.13;5.82;;;7.20;86.50;;;;;;5120756;27;20421;-75
2021/01/18 12:32:32;;;;;;;22.73;5.47;;;7.20;86.50;;;;;;5117302;27;20023;-75
2021/01/18 12:34:57;;;;;;;33.90;6.05;;;7.20;86.90;;;;;;5134581;27;20498;-75
2021/01/18 12:37:23;;;;;;;19.77;5.47;;;7.30;86.50;;;;;;5100765;27;20045;-75
2021/01/18 12:39:49;;;;;;;20.65;4.97;;;7.30;86.00;;;;;;5098278;28;20026;-75
2021/01/18 12:42:14;;;;;;;26.77;6.40;;;7.30;86.20;;;;;;5119560;27;20483;-75
2021/01/18 12:44:40;;;;;;;24.00;5.47;;;7.30;85.50;;;;;;5078505;28;20104;-75
2021/01/18 12:47:06;;;;;;;15.82;5.38;;;7.40;85.40;;;;;;5096677;28;20059;-75
2021/01/18 12:49:33;;;;;;;17.58;5.50;;;7.30;85.60;;;;;;5096816;28;20023;-75
2021/01/18 12:51:59;;;;;;;22.40;4.97;;;7.30;85.30;;;;;;5115020;28;20020;-75
2021/01/18 12:54:25;;;;;;;22.63;5.85;;;7.40;85.40;;;;;;5096749;28;20046;-75
2021/01/18 12:56:55;;;;;;;23.52;5.47;;;7.40;86.10;;;;;;5096930;28;20456;-75
2021/01/18 12:59:20;;;;;;;24.77;5.25;;;7.40;86.00;;;;;;5097036;28;20059;-75